Time;durP1;ratioP1;P1;durP2;ratioP2;P2;SDS_P1;SDS_P2;PMS_P1;PMS_P2;Temp;Humidity;BMP_temperature;BMP_pressure;BME280_temperature;BME280_humidity;BME280_pressure;Samples;Min_cycle;Max_cycle;Signal;HPM_P1;HPM_P2
2023/02/07 00:01:53;;;;;;;41.75;25.95;;;;;;;-3.80;100.00;103780.25;5009406;28;20202;-70
2023/02/07 00:04:23;;;;;;;46.72;26.60;;;;;;;-3.81;100.00;103778.50;4997573;28;20194;-68
2023/02/07 00:06:53;;;;;;;48.20;25.65;;;;;;;-3.88;100.00;103776.94;4997286;28;20237;-73
2023/02/07 00:09:23;;;;;;;40.42;26.50;;;;;;;-3.78;100.00;103770.50;5001483;28;20194;-71
2023/02/07 00:11:56;;;;;;;46.13;27.98;;;;;;;-3.74;100.00;103772.16;4997710;28;20198;-68
2023/02/07 00:14:26;;;;;;;48.00;28.95;;;;;;;-3.79;100.00;103764.34;4994779;28;20198;-69
2023/02/07 00:16:58;;;;;;;39.28;26.17;;;;;;;-3.82;100.00;103768.81;5015909;28;20214;-70
2023/02/07 00:19:27;;;;;;;46.58;27.90;;;;;;;-3.80;100.00;103767.88;4997789;28;20202;-67
2023/02/07 00:22:00;;;;;;;49.60;33.30;;;;;;;-3.74;100.00;103769.50;4999573;28;20317;-69
2023/02/07 00:24:30;;;;;;;45.92;29.85;;;;;;;-3.62;100.00;103775.34;4997799;28;20213;-68
2023/02/07 00:27:00;;;;;;;57.25;31.85;;;;;;;-3.70;100.00;103763.22;5001681;28;20225;-68
2023/02/07 00:29:31;;;;;;;44.55;29.75;;;;;;;-3.82;100.00;103771.47;5007686;28;20198;-70
2023/02/07 00:32:03;;;;;;;47.60;31.15;;;;;;;-4.11;100.00;103762.50;5003711;28;20252;-68
2023/02/07 00:34:34;;;;;;;58.00;31.30;;;;;;;-4.19;100.00;103768.88;5004298;28;20206;-69
2023/02/07 00:37:07;;;;;;;52.55;32.15;;;;;;;-4.28;100.00;103766.47;5010709;28;20249;-70
2023/02/07 00:39:38;;;;;;;44.15;30.75;;;;;;;-4.39;100.00;103769.34;5024316;28;20183;-68
2023/02/07 00:42:08;;;;;;;54.38;33.67;;;;;;;-4.50;100.00;103768.72;5004225;28;20290;-69
2023/02/07 00:44:38;;;;;;;56.85;34.47;;;;;;;-4.53;100.00;103766.16;5002698;28;20218;-69
2023/02/07 00:47:09;;;;;;;61.35;35.15;;;;;;;-4.60;100.00;103765.44;5002920;28;20218;-69
2023/02/07 00:49:39;;;;;;;57.47;34.45;;;;;;;-4.74;100.00;103764.03;5007585;28;20193;-68
2023/02/07 00:52:09;;;;;;;69.38;34.17;;;;;;;-4.60;100.00;103762.78;5008290;28;20202;-69
2023/02/07 00:54:39;;;;;;;55.00;34.60;;;;;;;-4.53;100.00;103768.81;5003511;28;20213;-69
2023/02/07 00:57:09;;;;;;;57.17;34.25;;;;;;;-4.45;100.00;103769.50;5002506;28;20614;-68
2023/02/07 00:59:38;;;;;;;59.55;36.33;;;;;;;-4.55;100.00;103768.00;5016120;28;20250;-68
2023/02/07 01:02:09;;;;;;;50.00;31.67;;;;;;;-4.54;100.00;103762.66;5028492;28;20213;-68
2023/02/07 01:04:39;;;;;;;53.95;33.58;;;;;;;-4.63;100.00;103769.94;5006918;28;20201;-69
2023/02/07 01:07:09;;;;;;;54.50;36.20;;;;;;;-4.59;100.00;103766.31;5010967;28;20226;-68
2023/02/07 01:09:39;;;;;;;47.20;32.30;;;;;;;-4.50;100.00;103766.09;5015724;28;20213;-70
2023/02/07 01:12:09;;;;;;;62.60;34.53;;;;;;;-4.67;100.00;103763.84;5003823;28;20663;-68
2023/02/07 01:14:39;;;;;;;54.03;33.42;;;;;;;-4.71;100.00;103762.19;4994970;28;20218;-69
2023/02/07 01:17:10;;;;;;;54.08;34.83;;;;;;;-4.78;100.00;103763.22;5000416;28;20214;-68
2023/02/07 01:19:40;;;;;;;56.53;35.28;;;;;;;-4.79;100.00;103757.97;5004498;28;20268;-69
2023/02/07 01:22:10;;;;;;;61.30;36.78;;;;;;;-4.69;100.00;103751.56;4996856;28;20198;-69
2023/02/07 01:24:40;;;;;;;60.15;35.13;;;;;;;-4.70;100.00;103760.41;5000125;28;20225;-68
2023/02/07 01:27:11;;;;;;;49.47;30.80;;;;;;;-4.66;100.00;103755.03;5016423;28;20221;-68
2023/02/07 01:29:41;;;;;;;53.95;33.50;;;;;;;-4.57;100.00;103760.09;5018849;28;20592;-69
2023/02/07 01:32:12;;;;;;;57.25;32.83;;;;;;;-4.62;100.00;103756.69;5003159;28;20675;-69
2023/02/07 01:34:42;;;;;;;58.33;29.90;;;;;;;-4.92;100.00;103754.72;4999747;28;20205;-69
2023/02/07 01:37:13;;;;;;;54.42;32.05;;;;;;;-5.01;100.00;103745.22;4996142;28;20213;-69
2023/02/07 01:39:43;;;;;;;58.75;33.15;;;;;;;-5.01;100.00;103737.31;5014189;28;20206;-68
2023/02/07 01:42:15;;;;;;;50.78;33.42;;;;;;;-4.96;100.00;103746.00;5000746;28;20224;-67
2023/02/07 01:45:05;;;;;;;59.85;33.80;;;;;;;-5.05;100.00;103745.31;4997201;28;20202;-69
2023/02/07 01:47:37;;;;;;;58.42;32.28;;;;;;;-5.07;100.00;103742.72;5016344;28;20225;-69
2023/02/07 01:50:08;;;;;;;52.90;34.35;;;;;;;-5.04;100.00;103740.03;4995372;28;20695;-68
2023/02/07 01:52:41;;;;;;;51.08;30.90;;;;;;;-4.97;100.00;103748.66;4996402;28;20229;-69
2023/02/07 01:55:15;;;;;;;51.72;28.00;;;;;;;-4.99;100.00;103742.56;4996420;28;20237;-68
2023/02/07 01:57:45;;;;;;;57.08;32.55;;;;;;;-4.88;100.00;103741.41;4999715;28;20634;-68
2023/02/07 02:00:18;;;;;;;59.55;30.65;;;;;;;-5.00;100.00;103733.78;5000411;28;20222;-68
2023/02/07 02:02:49;;;;;;;53.78;31.23;;;;;;;-4.98;100.00;103731.94;5014290;28;20308;-69
2023/02/07 02:05:21;;;;;;;55.67;36.00;;;;;;;-4.80;100.00;103738.63;4995087;28;20197;-69
2023/02/07 02:07:51;;;;;;;54.75;34.35;;;;;;;-4.95;100.00;103742.47;4996371;28;20209;-68
2023/02/07 02:10:24;;;;;;;49.67;32.65;;;;;;;-4.91;100.00;103736.19;5021670;28;20182;-68
2023/02/07 02:13:17;;;;;;;55.67;32.53;;;;;;;-4.67;100.00;103731.25;5012062;28;20186;-69
2023/02/07 02:15:55;;;;;;;53.17;33.35;;;;;;;-4.55;100.00;103720.44;4994520;28;20222;-68
2023/02/07 02:18:42;;;;;;;56.13;33.72;;;;;;;-4.80;100.00;103719.25;4996248;28;20225;-68
2023/02/07 02:21:40;;;;;;;63.00;33.03;;;;;;;-4.87;100.00;103723.78;5009814;28;20248;-68
2023/02/07 02:24:49;;;;;;;52.05;34.00;;;;;;;-5.06;100.00;103722.44;5007967;28;20190;-68
2023/02/07 02:27:32;;;;;;;50.20;30.08;;;;;;;-4.98;100.00;103731.94;4955588;28;20308;-68
2023/02/07 02:30:34;;;;;;;55.45;31.77;;;;;;;-4.92;100.00;103733.59;5000869;28;20198;-69
2023/02/07 02:33:17;;;;;;;44.70;31.30;;;;;;;-4.87;100.00;103734.34;4980605;28;20672;-71
2023/02/07 02:35:57;;;;;;;60.60;33.83;;;;;;;-5.08;100.00;103717.19;5016772;28;20570;-69
2023/02/07 02:38:33;;;;;;;55.63;32.70;;;;;;;-4.93;100.00;103714.22;5019968;28;20380;-69
2023/02/07 02:41:10;;;;;;;50.00;31.58;;;;;;;-4.77;100.00;103716.53;4993984;28;20248;-68
2023/02/07 03:00:57;;;;;;;52.15;32.53;;;;;;;-4.51;100.00;103693.00;5012460;28;20204;-69
2023/02/07 03:03:49;;;;;;;47.13;31.45;;;;;;;-4.52;100.00;103689.50;5011907;28;20206;-69
2023/02/07 03:06:31;;;;;;;50.53;32.10;;;;;;;-4.64;100.00;103688.91;5004535;28;20632;-69
2023/02/07 03:09:10;;;;;;;56.00;33.47;;;;;;;-4.87;100.00;103682.41;5012045;28;20197;-68
2023/02/07 03:11:49;;;;;;;42.78;27.95;;;;;;;-4.92;100.00;103689.56;5001158;28;20197;-68
2023/02/07 03:14:24;;;;;;;58.95;32.30;;;;;;;-4.96;100.00;103693.16;4994836;28;20205;-69
2023/02/07 03:17:04;;;;;;;53.70;33.25;;;;;;;-4.83;100.00;103686.69;5011112;28;20210;-69
2023/02/07 03:19:38;;;;;;;51.25;31.20;;;;;;;-4.86;100.00;103678.84;5009080;28;20830;-69
2023/02/07 03:22:12;;;;;;;55.28;30.45;;;;;;;-5.01;100.00;103673.91;5000641;28;20220;-69
2023/02/07 03:24:49;;;;;;;57.25;30.23;;;;;;;-5.08;100.00;103680.22;5003943;28;20672;-69
2023/02/07 03:27:22;;;;;;;53.80;30.88;;;;;;;-5.25;100.00;103679.72;5000313;28;20217;-69
2023/02/07 03:29:57;;;;;;;57.67;32.83;;;;;;;-5.15;100.00;103686.56;5001450;28;20248;-69
2023/02/07 03:32:33;;;;;;;53.03;30.02;;;;;;;-4.76;100.00;103689.19;5005205;28;20250;-68
2023/02/07 03:35:09;;;;;;;56.55;34.17;;;;;;;-4.76;100.00;103683.91;5019377;28;20194;-69
2023/02/07 03:37:42;;;;;;;55.92;34.67;;;;;;;-4.92;100.00;103678.13;5001699;28;20217;-68
2023/02/07 03:40:13;;;;;;;56.40;33.65;;;;;;;-4.91;100.00;103679.84;5004614;28;20214;-68
2023/02/07 03:42:47;;;;;;;51.40;31.50;;;;;;;-5.14;100.00;103688.31;5004777;28;20198;-68
2023/02/07 03:45:20;;;;;;;49.60;30.25;;;;;;;-4.99;100.00;103685.31;5033747;28;20194;-68
2023/02/07 03:47:51;;;;;;;54.33;31.70;;;;;;;-4.96;100.00;103681.72;5015118;28;20333;-68
2023/02/07 03:50:20;;;;;;;53.45;32.50;;;;;;;-5.14;100.00;103676.88;5013074;28;20240;-69
2023/02/07 03:52:50;;;;;;;51.00;31.13;;;;;;;-5.23;100.00;103688.50;5017841;28;20185;-69
2023/02/07 03:55:20;;;;;;;50.22;31.13;;;;;;;-5.31;100.00;103691.28;5014771;28;20206;-71
2023/02/07 03:57:50;;;;;;;56.50;34.03;;;;;;;-5.28;100.00;103701.78;5000741;28;20618;-68
2023/02/07 04:00:20;;;;;;;65.28;34.50;;;;;;;-5.23;100.00;103696.44;4996520;28;20253;-70
2023/02/07 04:02:51;;;;;;;56.33;32.97;;;;;;;-5.28;100.00;103693.00;4995625;28;20285;-70
2023/02/07 04:05:20;;;;;;;60.53;32.40;;;;;;;-5.36;100.00;103689.66;4998549;28;20615;-69
2023/02/07 04:07:50;;;;;;;60.60;31.30;;;;;;;-5.32;100.00;103696.59;5014375;28;20193;-69
2023/02/07 04:10:20;;;;;;;55.38;33.35;;;;;;;-5.25;100.00;103692.94;5002606;28;20186;-68
2023/02/07 04:12:49;;;;;;;51.75;31.38;;;;;;;-5.20;100.00;103704.28;4996490;28;20574;-69
2023/02/07 04:15:19;;;;;;;53.10;35.10;;;;;;;-5.21;100.00;103702.53;5002354;28;20205;-69
2023/02/07 04:17:51;;;;;;;59.38;33.42;;;;;;;-5.27;100.00;103708.78;4998499;28;20329;-68
2023/02/07 04:20:20;;;;;;;49.90;29.52;;;;;;;-5.34;100.00;103706.34;4997672;28;20297;-68
2023/02/07 04:22:50;;;;;;;52.80;33.85;;;;;;;-5.36;100.00;103703.72;5007991;28;20197;-68
2023/02/07 04:25:20;;;;;;;54.90;34.30;;;;;;;-5.46;100.00;103703.94;4994285;28;20210;-68
2023/02/07 04:27:52;;;;;;;52.90;31.48;;;;;;;-5.52;100.00;103701.44;5001670;28;20204;-69
2023/02/07 04:30:22;;;;;;;45.65;27.13;;;;;;;-5.59;100.00;103694.53;5014603;28;20270;-67
2023/02/07 04:32:54;;;;;;;50.10;28.52;;;;;;;-5.54;100.00;103687.38;5020114;28;20213;-68
2023/02/07 04:35:24;;;;;;;58.45;30.85;;;;;;;-5.67;100.00;103685.91;4996840;28;20549;-70
2023/02/07 04:37:53;;;;;;;48.97;29.95;;;;;;;-5.58;100.00;103677.81;5003722;28;20201;-69
2023/02/07 04:40:23;;;;;;;57.15;33.22;;;;;;;-5.68;100.00;103676.25;5012583;28;20301;-68
2023/02/07 04:42:53;;;;;;;56.90;34.00;;;;;;;-5.58;100.00;103693.63;4996618;28;20637;-68
2023/02/07 04:45:22;;;;;;;58.63;31.65;;;;;;;-5.78;100.00;103688.75;4993715;28;20197;-69
2023/02/07 04:47:54;;;;;;;63.67;32.50;;;;;;;-5.79;100.00;103693.16;5007943;28;20198;-69
2023/02/07 04:50:24;;;;;;;50.50;31.13;;;;;;;-5.78;100.00;103708.09;4996313;28;20560;-70
2023/02/07 04:52:53;;;;;;;56.25;33.20;;;;;;;-5.89;100.00;103696.88;5000794;28;20194;-67
2023/02/07 04:55:23;;;;;;;61.83;32.40;;;;;;;-5.77;100.00;103706.31;4997617;28;20300;-70
2023/02/07 04:57:53;;;;;;;48.75;30.95;;;;;;;-5.89;100.00;103712.72;5007537;28;20289;-70
2023/02/07 05:00:22;;;;;;;46.90;31.40;;;;;;;-5.79;100.00;103718.66;5018706;28;20259;-73
2023/02/07 05:02:53;;;;;;;50.83;29.85;;;;;;;-5.81;100.00;103710.75;5013902;28;20204;-69
2023/02/07 05:05:23;;;;;;;62.75;32.17;;;;;;;-5.81;100.00;103708.13;5003369;28;20245;-69
2023/02/07 05:07:53;;;;;;;55.65;31.58;;;;;;;-5.48;100.00;103700.47;5001589;28;20201;-68
2023/02/07 05:10:22;;;;;;;49.78;31.30;;;;;;;-5.66;100.00;103703.47;5018273;28;20281;-67
2023/02/07 05:12:52;;;;;;;61.33;35.75;;;;;;;-5.68;100.00;103697.34;5009554;28;20229;-69
2023/02/07 05:15:22;;;;;;;47.75;32.15;;;;;;;-5.70;100.00;103698.25;4998843;28;20228;-69
2023/02/07 05:17:53;;;;;;;52.63;34.17;;;;;;;-5.57;100.00;103700.66;5003721;28;20681;-70
2023/02/07 05:20:23;;;;;;;54.47;34.40;;;;;;;-5.61;100.00;103701.59;5011956;28;20309;-68
2023/02/07 05:22:53;;;;;;;52.75;31.33;;;;;;;-5.61;100.00;103698.94;5008110;28;20220;-70
2023/02/07 05:25:22;;;;;;;53.83;33.08;;;;;;;-5.81;100.00;103694.94;5019113;28;20194;-68
2023/02/07 05:27:55;;;;;;;61.13;32.58;;;;;;;-5.80;100.00;103691.41;5020490;28;20218;-69
2023/02/07 05:30:25;;;;;;;60.97;35.83;;;;;;;-5.58;100.00;103702.44;4999799;28;20661;-69
2023/02/07 05:33:04;;;;;;;55.42;36.05;;;;;;;-5.67;100.00;103696.47;5021737;28;20220;-68
2023/02/07 05:35:35;;;;;;;61.00;30.33;;;;;;;-5.72;100.00;103700.06;5002045;28;20206;-69
2023/02/07 05:38:07;;;;;;;59.30;35.63;;;;;;;-5.81;100.00;103702.84;5016704;28;20204;-68
2023/02/07 05:40:38;;;;;;;48.60;34.45;;;;;;;-5.86;100.00;103701.22;4995409;28;20216;-67
2023/02/07 05:43:08;;;;;;;49.88;34.00;;;;;;;-5.73;100.00;103713.28;4998939;28;20198;-67
2023/02/07 05:45:38;;;;;;;58.33;34.80;;;;;;;-5.71;100.00;103717.59;5014488;28;20759;-68
2023/02/07 05:48:10;;;;;;;53.08;34.67;;;;;;;-5.65;100.00;103716.63;5017136;28;20618;-68
2023/02/07 05:50:40;;;;;;;64.47;37.60;;;;;;;-5.79;100.00;103714.25;5002115;28;20197;-67
2023/02/07 05:53:11;;;;;;;57.72;33.80;;;;;;;-5.67;100.00;103722.84;5003144;28;20209;-67
2023/02/07 05:55:42;;;;;;;67.20;37.60;;;;;;;-5.54;100.00;103719.06;5005053;28;20319;-69
2023/02/07 05:58:12;;;;;;;61.25;39.42;;;;;;;-5.52;100.00;103725.19;4997428;28;20202;-68
2023/02/07 06:00:42;;;;;;;53.53;34.80;;;;;;;-5.61;100.00;103725.34;4994934;28;20213;-68
2023/02/07 06:03:13;;;;;;;51.30;31.83;;;;;;;-5.62;100.00;103728.91;5013747;28;20189;-68
2023/02/07 06:05:43;;;;;;;49.70;28.40;;;;;;;-5.71;100.00;103733.44;4996139;28;20754;-68
2023/02/07 06:08:12;;;;;;;59.45;30.42;;;;;;;-5.87;100.00;103726.75;4992409;28;20297;-69
2023/02/07 06:10:42;;;;;;;51.80;30.35;;;;;;;-5.91;100.00;103730.34;4999308;28;20460;-70
2023/02/07 06:13:12;;;;;;;51.75;30.83;;;;;;;-5.96;100.00;103732.19;5012503;28;20273;-69
2023/02/07 06:15:41;;;;;;;57.35;28.50;;;;;;;-6.05;100.00;103740.25;4993809;28;20236;-67
2023/02/07 06:18:13;;;;;;;44.55;26.15;;;;;;;-5.96;100.00;103731.31;4995655;28;20631;-69
2023/02/07 06:20:43;;;;;;;50.08;29.25;;;;;;;-5.84;100.00;103742.47;4997216;28;20213;-69
2023/02/07 06:23:13;;;;;;;51.75;28.73;;;;;;;-5.84;100.00;103739.84;5011235;28;20581;-71
2023/02/07 06:25:42;;;;;;;40.38;29.33;;;;;;;-5.42;100.00;103745.22;5012527;28;20210;-69
2023/02/07 06:28:12;;;;;;;53.88;31.55;;;;;;;-5.37;100.00;103745.97;4993338;28;20359;-71
2023/02/07 06:30:42;;;;;;;54.97;29.95;;;;;;;-5.38;100.00;103750.41;5000929;28;20251;-69
2023/02/07 06:33:13;;;;;;;45.83;32.35;;;;;;;-5.46;100.00;103749.66;4993997;28;20296;-69
2023/02/07 06:35:46;;;;;;;47.60;28.45;;;;;;;-5.31;100.00;103748.50;5004748;28;20248;-68
2023/02/07 06:38:16;;;;;;;52.63;29.73;;;;;;;-5.31;100.00;103744.09;4996343;28;20302;-68
2023/02/07 06:40:46;;;;;;;47.17;28.23;;;;;;;-5.17;100.00;103746.44;5009412;28;20221;-69
2023/02/07 06:43:16;;;;;;;43.97;29.42;;;;;;;-5.06;100.00;103748.84;5015532;28;20228;-69
2023/02/07 06:45:46;;;;;;;58.92;35.38;;;;;;;-5.29;100.00;103752.84;5005639;28;20707;-67
2023/02/07 06:48:17;;;;;;;47.58;31.40;;;;;;;-5.33;100.00;103753.81;5015036;28;20205;-69
2023/02/07 06:50:49;;;;;;;43.97;30.15;;;;;;;-5.29;100.00;103752.00;5017651;28;20190;-68
2023/02/07 06:53:19;;;;;;;55.70;28.58;;;;;;;-5.17;100.00;103743.78;4994839;28;20202;-69
2023/02/07 06:55:49;;;;;;;48.72;28.55;;;;;;;-5.22;100.00;103748.31;4999842;28;20315;-68
2023/02/07 06:58:20;;;;;;;45.40;26.92;;;;;;;-5.35;100.00;103742.41;5006321;28;20296;-68
2023/02/07 07:00:49;;;;;;;47.67;28.33;;;;;;;-5.21;100.00;103742.13;5006203;28;20214;-68
2023/02/07 07:03:25;;;;;;;47.22;28.45;;;;;;;-5.04;100.00;103740.03;5000765;28;20194;-67
2023/02/07 07:05:55;;;;;;;41.65;28.08;;;;;;;-4.74;100.00;103740.25;5022621;28;20223;-68
2023/02/07 07:08:25;;;;;;;40.38;29.88;;;;;;;-4.66;100.00;103743.59;5015473;28;20201;-68
2023/02/07 07:10:56;;;;;;;48.60;29.05;;;;;;;-4.54;100.00;103745.91;5001125;28;20571;-69
2023/02/07 07:13:26;;;;;;;50.90;29.98;;;;;;;-4.44;100.00;103750.09;5003512;28;20200;-69
2023/02/07 07:15:55;;;;;;;43.85;28.77;;;;;;;-4.46;100.00;103751.91;4997765;28;20312;-67
2023/02/07 07:18:31;;;;;;;45.40;29.35;;;;;;;-4.51;100.00;103737.94;5010081;28;20206;-69
2023/02/07 07:21:00;;;;;;;49.45;27.75;;;;;;;-4.14;100.00;103728.19;5010830;28;20308;-69
2023/02/07 07:23:30;;;;;;;47.35;25.80;;;;;;;-4.10;100.00;103727.19;5000373;28;20198;-68
2023/02/07 07:26:00;;;;;;;55.25;29.77;;;;;;;-4.03;100.00;103726.16;5003973;28;20218;-69
2023/02/07 07:28:30;;;;;;;50.25;28.73;;;;;;;-4.13;100.00;103722.00;5015119;28;20186;-68
2023/02/07 07:31:06;;;;;;;42.22;25.63;;;;;;;-4.03;100.00;103714.69;5017761;28;20194;-68
2023/02/07 07:33:39;;;;;;;51.15;27.15;;;;;;;-3.73;100.00;103728.91;5030782;28;20202;-69
2023/02/07 07:36:09;;;;;;;36.40;26.08;;;;;;;-3.57;100.00;103731.06;5013515;28;20317;-69
2023/02/07 07:38:39;;;;;;;43.75;28.50;;;;;;;-3.38;100.00;103731.41;5026040;28;20201;-69
2023/02/07 07:41:12;;;;;;;55.13;31.75;;;;;;;-3.28;100.00;103745.28;5018853;28;20221;-68
2023/02/07 07:43:42;;;;;;;40.22;26.65;;;;;;;-3.21;100.00;103738.91;5006617;28;20198;-70
2023/02/07 07:46:12;;;;;;;45.10;28.80;;;;;;;-3.05;100.00;103736.69;5008773;28;20275;-69
2023/02/07 07:48:43;;;;;;;45.78;26.88;;;;;;;-2.96;100.00;103724.03;5033931;28;20186;-69
2023/02/07 07:51:13;;;;;;;47.95;26.80;;;;;;;-2.77;100.00;103741.09;5024958;28;20278;-69
2023/02/07 07:53:43;;;;;;;41.33;23.85;;;;;;;-2.68;99.98;103734.63;5034333;28;20194;-70
2023/02/07 07:56:13;;;;;;;42.60;27.73;;;;;;;-2.47;99.50;103741.91;5017810;28;20229;-69
2023/02/07 07:58:43;;;;;;;40.13;25.88;;;;;;;-2.48;98.54;103729.56;5014151;28;20202;-70
2023/02/07 08:01:15;;;;;;;49.67;28.00;;;;;;;-2.39;98.33;103731.94;5014056;28;20224;-69
2023/02/07 08:03:46;;;;;;;40.67;28.60;;;;;;;-2.36;98.90;103742.44;5003761;28;20206;-68
2023/02/07 08:06:16;;;;;;;50.20;29.80;;;;;;;-2.29;99.60;103743.09;5004743;28;20256;-71
2023/02/07 08:08:46;;;;;;;44.95;25.83;;;;;;;-2.06;98.47;103745.00;5002912;28;20202;-69
2023/02/07 08:11:16;;;;;;;41.22;30.25;;;;;;;-1.84;97.04;103749.50;5028211;28;20421;-68
2023/02/07 08:13:46;;;;;;;45.60;27.35;;;;;;;-1.85;95.46;103752.25;5005054;28;20198;-67
2023/02/07 08:16:17;;;;;;;37.40;25.80;;;;;;;-1.65;95.86;103757.72;5008883;28;20684;-67
2023/02/07 08:18:48;;;;;;;41.78;27.25;;;;;;;-1.53;95.14;103749.31;5002737;28;20198;-67
2023/02/07 08:21:18;;;;;;;34.10;23.42;;;;;;;-1.58;93.91;103751.25;5006847;28;20198;-67
2023/02/07 08:23:48;;;;;;;45.55;27.63;;;;;;;-1.43;94.02;103749.84;5002925;28;20190;-68
2023/02/07 08:26:18;;;;;;;38.08;25.45;;;;;;;-1.24;93.63;103752.69;5006623;28;20687;-69
2023/02/07 08:28:48;;;;;;;33.80;24.88;;;;;;;-1.27;92.37;103753.69;5012041;28;20198;-69
2023/02/07 08:31:18;;;;;;;40.83;26.80;;;;;;;-1.06;93.07;103747.56;5017495;28;20186;-70
2023/02/07 08:33:50;;;;;;;42.50;25.98;;;;;;;-1.02;92.85;103745.69;5004370;28;20706;-69
2023/02/07 08:36:20;;;;;;;35.70;25.30;;;;;;;-0.92;91.19;103745.25;5007937;28;20293;-69
2023/02/07 08:38:50;;;;;;;36.63;25.33;;;;;;;-0.92;90.82;103739.91;5027082;28;20618;-69
2023/02/07 08:41:20;;;;;;;34.22;24.55;;;;;;;-0.97;89.69;103754.34;5006182;28;20236;-69
2023/02/07 08:43:50;;;;;;;36.30;23.52;;;;;;;-0.94;89.61;103740.91;4996099;28;20210;-68
2023/02/07 08:46:20;;;;;;;43.10;25.58;;;;;;;-0.90;87.89;103739.88;4996114;28;20225;-69
2023/02/07 08:48:51;;;;;;;43.20;25.15;;;;;;;-0.73;87.97;103742.75;4992461;28;20206;-69
2023/02/07 08:51:23;;;;;;;38.28;23.50;;;;;;;-0.57;86.68;103743.00;4991424;28;20265;-69
2023/02/07 08:53:54;;;;;;;31.80;22.27;;;;;;;-0.32;87.63;103750.88;4998112;28;20213;-67
2023/02/07 08:56:24;;;;;;;32.40;21.77;;;;;;;-0.48;85.46;103745.28;5023108;28;20308;-67
2023/02/07 08:58:55;;;;;;;33.63;22.08;;;;;;;-0.32;85.49;103748.19;5008209;28;20248;-68
2023/02/07 09:01:27;;;;;;;34.35;20.83;;;;;;;-0.30;83.38;103754.34;5005813;28;20642;-69
2023/02/07 09:03:58;;;;;;;34.38;20.17;;;;;;;-0.15;83.06;103743.06;5009580;28;20198;-68
2023/02/07 09:06:28;;;;;;;28.23;18.95;;;;;;;-0.14;83.21;103739.47;5007503;28;20218;-68
2023/02/07 09:08:57;;;;;;;30.70;20.52;;;;;;;-0.14;82.32;103739.47;5009991;28;20319;-69
2023/02/07 09:11:27;;;;;;;28.90;19.52;;;;;;;-0.06;82.87;103743.56;4998896;28;20281;-67
2023/02/07 09:13:57;;;;;;;27.02;18.80;;;;;;;0.03;81.64;103750.28;5013497;28;20186;-68
2023/02/07 09:16:27;;;;;;;36.70;20.45;;;;;;;0.13;80.96;103743.63;5000903;28;20301;-71
2023/02/07 09:18:59;;;;;;;28.65;20.05;;;;;;;0.24;80.03;103741.34;4996863;28;20624;-69
2023/02/07 09:21:30;;;;;;;27.10;16.52;;;;;;;0.42;80.45;103745.03;5008747;28;20288;-68
2023/02/07 09:23:59;;;;;;;25.23;17.30;;;;;;;0.33;77.29;103756.97;4993676;28;20227;-69
2023/02/07 09:26:32;;;;;;;26.00;17.63;;;;;;;0.29;77.22;103747.34;5024625;28;20571;-68
2023/02/07 09:29:02;;;;;;;23.52;16.08;;;;;;;0.55;77.84;103750.69;4995408;28;20197;-69
2023/02/07 09:31:33;;;;;;;26.13;17.10;;;;;;;0.60;77.00;103748.69;4999365;28;20216;-68
2023/02/07 09:34:04;;;;;;;32.42;19.20;;;;;;;0.42;74.68;103748.56;5015572;28;20213;-68
2023/02/07 09:36:34;;;;;;;33.90;23.77;;;;;;;0.56;75.81;103747.97;5018190;28;20289;-68
2023/02/07 09:39:05;;;;;;;25.65;18.15;;;;;;;0.83;73.70;103759.16;5014545;28;20695;-69
2023/02/07 09:41:44;;;;;;;27.92;17.70;;;;;;;0.99;74.08;103762.88;5012157;28;20197;-69
2023/02/07 09:44:17;;;;;;;34.65;20.45;;;;;;;0.83;74.93;103762.69;5010871;28;20229;-69
2023/02/07 09:46:52;;;;;;;27.38;21.20;;;;;;;0.90;74.00;103770.44;5021895;28;20214;-69
2023/02/07 09:49:33;;;;;;;29.88;22.17;;;;;;;1.27;74.83;103763.31;5032172;28;20194;-68
2023/02/07 09:52:11;;;;;;;34.65;22.10;;;;;;;1.36;72.44;103772.69;5009964;28;20261;-68
2023/02/07 09:54:44;;;;;;;32.30;21.80;;;;;;;1.28;72.20;103762.38;5011289;28;20214;-69
2023/02/07 09:57:18;;;;;;;27.35;20.23;;;;;;;1.36;72.86;103764.69;5005849;28;20217;-67
2023/02/07 09:59:54;;;;;;;28.80;19.83;;;;;;;1.61;70.22;103759.03;4995899;28;20268;-69
2023/02/07 10:02:30;;;;;;;31.25;20.38;;;;;;;1.53;69.45;103764.75;5001116;28;20281;-69
2023/02/07 10:05:05;;;;;;;29.63;21.55;;;;;;;1.45;69.09;103776.75;4994241;28;20198;-69
2023/02/07 10:07:35;;;;;;;36.35;20.48;;;;;;;1.24;69.37;103775.94;5013563;28;20217;-69
2023/02/07 10:10:13;;;;;;;28.23;19.33;;;;;;;1.52;69.07;103783.50;5002199;28;20191;-66
2023/02/07 10:13:04;;;;;;;32.60;24.38;;;;;;;1.52;68.37;103772.81;5006566;28;20185;-69
2023/02/07 10:15:57;;;;;;;29.90;21.45;;;;;;;1.79;67.05;103782.19;5010850;28;20224;-69
2023/02/07 10:18:40;;;;;;;30.55;18.48;;;;;;;1.84;65.75;103785.47;5015864;28;20222;-69
2023/02/07 10:21:21;;;;;;;31.55;19.83;;;;;;;1.83;65.85;103791.78;5003925;28;20261;-69
2023/02/07 10:24:30;;;;;;;32.15;19.40;;;;;;;1.91;65.60;103794.91;5009199;28;20218;-69
2023/02/07 10:27:09;;;;;;;31.67;19.35;;;;;;;2.02;65.89;103784.59;5017722;28;20213;-68
2023/02/07 10:29:50;;;;;;;28.60;19.15;;;;;;;2.09;65.23;103791.34;5004254;28;20201;-69
2023/02/07 10:32:23;;;;;;;24.63;18.13;;;;;;;1.90;65.31;103790.50;5013918;28;20289;-68
2023/02/07 10:35:00;;;;;;;32.85;19.80;;;;;;;1.93;66.05;103782.38;5026904;28;20276;-70
2023/02/07 10:37:38;;;;;;;34.70;20.77;;;;;;;2.05;66.03;103775.53;5017626;28;20214;-69
2023/02/07 10:40:15;;;;;;;35.60;19.83;;;;;;;1.94;65.49;103769.84;5021605;28;20316;-70
2023/02/07 10:42:50;;;;;;;29.33;19.40;;;;;;;2.08;65.51;103770.88;5029401;28;20617;-68
2023/02/07 10:45:20;;;;;;;33.47;20.75;;;;;;;2.07;65.60;103771.84;5021341;28;20295;-68
2023/02/07 10:47:50;;;;;;;30.95;18.70;;;;;;;1.99;64.83;103767.81;5005009;28;20619;-68
2023/02/07 10:50:23;;;;;;;31.58;19.20;;;;;;;2.16;65.32;103774.06;5003559;28;20190;-69
2023/02/07 10:53:00;;;;;;;33.08;20.75;;;;;;;2.26;65.63;103760.22;5001693;28;20193;-68
2023/02/07 10:55:41;;;;;;;28.50;19.52;;;;;;;2.21;64.30;103772.97;5031048;28;20260;-68
2023/02/07 10:58:16;;;;;;;33.03;20.98;;;;;;;2.10;64.26;103768.16;5012696;28;20212;-70
2023/02/07 11:00:53;;;;;;;27.70;18.02;;;;;;;2.31;66.08;103763.53;5007259;28;20225;-69
2023/02/07 11:03:24;;;;;;;30.38;19.45;;;;;;;2.34;64.94;103771.38;5013977;28;20244;-69
2023/02/07 11:05:58;;;;;;;29.85;22.20;;;;;;;2.33;65.39;103772.31;5000181;28;20249;-69
2023/02/07 11:08:31;;;;;;;34.40;21.08;;;;;;;2.50;64.00;103775.00;5018367;28;20188;-69
2023/02/07 11:11:17;;;;;;;35.22;20.40;;;;;;;2.32;63.12;103771.47;5002278;28;20285;-68
2023/02/07 11:13:50;;;;;;;28.05;18.17;;;;;;;2.11;64.57;103773.44;5015807;28;20252;-68
2023/02/07 11:16:23;;;;;;;29.88;19.90;;;;;;;2.25;65.23;103771.84;4997783;28;20233;-68
2023/02/07 11:18:58;;;;;;;29.23;20.40;;;;;;;2.24;64.11;103773.66;5012839;28;20197;-67
2023/02/07 11:21:34;;;;;;;28.85;20.30;;;;;;;2.25;64.05;103774.53;5022793;28;20201;-69
2023/02/07 11:24:08;;;;;;;32.60;20.60;;;;;;;2.32;64.04;103770.63;5000080;28;20255;-69
2023/02/07 11:26:51;;;;;;;28.90;18.38;;;;;;;2.52;63.62;103775.75;4999094;28;20216;-69
2023/02/07 11:29:22;;;;;;;30.30;18.45;;;;;;;2.66;63.03;103767.91;5011887;28;20277;-69
2023/02/07 11:31:55;;;;;;;26.70;18.17;;;;;;;2.94;62.83;103769.97;5002079;28;20232;-69
2023/02/07 11:34:37;;;;;;;25.15;17.45;;;;;;;2.92;61.62;103761.16;4995455;28;20224;-69
2023/02/07 11:37:19;;;;;;;25.83;17.55;;;;;;;2.92;62.69;103758.47;4996453;28;20232;-68
2023/02/07 11:39:53;;;;;;;31.38;19.52;;;;;;;3.04;61.72;103758.69;4996760;28;20679;-69
2023/02/07 11:42:26;;;;;;;27.40;18.50;;;;;;;2.71;61.28;103763.16;4999954;28;20222;-69
2023/02/07 11:44:55;;;;;;;24.83;17.67;;;;;;;2.62;61.61;103759.16;5019101;28;20301;-70
2023/02/07 11:47:28;;;;;;;29.52;19.42;;;;;;;2.66;60.93;103757.22;5024938;28;20658;-70
2023/02/07 11:50:00;;;;;;;28.27;19.95;;;;;;;2.71;61.55;103754.31;5010298;28;20190;-69